createdAt,value
2019-05-15T00:00:58.000Z,274.91
2019-05-15T00:02:20.000Z,274.86
2019-05-15T00:04:22.000Z,274.85
2019-05-15T00:05:44.000Z,274.84
2019-05-15T00:07:45.000Z,274.78
2019-05-15T00:09:07.000Z,274.81
2019-05-15T00:11:09.000Z,274.96
2019-05-15T00:12:31.000Z,274.95
2019-05-15T00:14:32.000Z,274.88
2019-05-15T00:15:54.000Z,274.91
2019-05-15T00:17:55.000Z,274.86
2019-05-15T00:19:19.000Z,274.74
2019-05-15T00:21:20.000Z,274.66
2019-05-15T00:22:42.000Z,274.71
2019-05-15T00:24:45.000Z,274.73
2019-05-15T00:26:07.000Z,274.67
2019-05-15T00:28:11.000Z,274.63
2019-05-15T00:29:33.000Z,274.65
2019-05-15T00:31:34.000Z,274.72
2019-05-15T00:32:59.000Z,274.74
2019-05-15T00:35:00.000Z,274.84
2019-05-15T00:36:22.000Z,274.96
2019-05-15T00:38:24.000Z,275
2019-05-15T00:39:47.000Z,274.95
2019-05-15T00:41:49.000Z,274.93
2019-05-15T00:43:16.000Z,275
2019-05-15T00:45:20.000Z,274.92
2019-05-15T00:46:42.000Z,274.84
2019-05-15T00:48:44.000Z,274.8
2019-05-15T00:50:06.000Z,274.68
2019-05-15T00:52:09.000Z,274.71
2019-05-15T00:53:36.000Z,274.74
2019-05-15T00:55:36.000Z,274.76
2019-05-15T00:56:59.000Z,274.71
2019-05-15T00:59:02.000Z,274.6
2019-05-15T01:00:25.000Z,274.48
2019-05-15T01:02:29.000Z,274.35
2019-05-15T01:03:52.000Z,274.26
2019-05-15T01:05:55.000Z,274.2
2019-05-15T01:07:18.000Z,274.11
2019-05-15T01:09:19.000Z,274.09
2019-05-15T01:10:42.000Z,274.1
2019-05-15T01:12:43.000Z,274.14
2019-05-15T01:14:05.000Z,274.17
2019-05-15T01:16:08.000Z,274.11
2019-05-15T01:17:32.000Z,274.17
2019-05-15T01:19:33.000Z,274.11
2019-05-15T01:20:56.000Z,274.11
2019-05-15T01:22:59.000Z,274.19
2019-05-15T01:24:21.000Z,274.07
2019-05-15T01:26:25.000Z,273.97
2019-05-15T01:27:50.000Z,273.93
2019-05-15T01:29:52.000Z,273.85
2019-05-15T01:31:15.000Z,273.82
2019-05-15T01:33:19.000Z,273.86
2019-05-15T01:34:44.000Z,273.84
2019-05-15T01:36:46.000Z,273.79
2019-05-15T01:38:12.000Z,273.75
2019-05-15T01:40:17.000Z,273.74
2019-05-15T01:41:41.000Z,273.68
2019-05-15T01:43:45.000Z,273.71
2019-05-15T01:45:07.000Z,273.64
2019-05-15T01:47:10.000Z,273.62
2019-05-15T01:48:35.000Z,273.62
2019-05-15T01:50:38.000Z,273.56
2019-05-15T01:52:05.000Z,273.53
2019-05-15T01:54:09.000Z,273.51
2019-05-15T01:55:32.000Z,273.48
2019-05-15T01:57:35.000Z,273.48
2019-05-15T01:59:01.000Z,273.44
2019-05-15T02:01:03.000Z,273.44
2019-05-15T02:02:29.000Z,273.43
2019-05-15T02:04:32.000Z,273.38
2019-05-15T02:05:54.000Z,273.34
2019-05-15T02:07:57.000Z,273.29
2019-05-15T02:09:23.000Z,273.34
2019-05-15T02:11:25.000Z,273.35
2019-05-15T02:12:53.000Z,273.29
2019-05-15T02:14:56.000Z,273.3
2019-05-15T02:16:26.000Z,273.34
2019-05-15T02:18:32.000Z,273.31
2019-05-15T02:19:58.000Z,273.13
2019-05-15T02:22:07.000Z,273.16
2019-05-15T02:23:33.000Z,273.17
2019-05-15T02:25:39.000Z,273.12
2019-05-15T02:27:04.000Z,273.05
2019-05-15T02:29:06.000Z,273
2019-05-15T02:30:35.000Z,272.95
2019-05-15T02:32:44.000Z,273.01
2019-05-15T02:34:11.000Z,272.96
2019-05-15T02:36:20.000Z,272.85
2019-05-15T02:37:43.000Z,272.84
2019-05-15T02:39:48.000Z,272.78
2019-05-15T02:41:13.000Z,272.76
2019-05-15T02:43:17.000Z,272.79
2019-05-15T02:44:43.000Z,272.77
2019-05-15T02:46:49.000Z,272.77
2019-05-15T02:48:19.000Z,272.77
2019-05-15T02:50:20.000Z,272.76
2019-05-15T02:51:48.000Z,272.74
2019-05-15T02:53:57.000Z,272.74
2019-05-15T02:55:21.000Z,272.77
2019-05-15T02:57:29.000Z,272.76
2019-05-15T02:58:59.000Z,272.7
2019-05-15T03:01:06.000Z,272.68
2019-05-15T03:02:40.000Z,272.59
2019-05-15T03:04:49.000Z,272.53
2019-05-15T03:06:14.000Z,272.5
2019-05-15T03:08:21.000Z,272.46
2019-05-15T03:09:50.000Z,272.41
2019-05-15T03:11:52.000Z,272.44
2019-05-15T03:13:24.000Z,272.41
2019-05-15T03:15:31.000Z,272.39
2019-05-15T03:16:56.000Z,272.4
2019-05-15T03:19:05.000Z,272.39
2019-05-15T03:20:28.000Z,272.37
2019-05-15T03:22:38.000Z,272.41
2019-05-15T03:24:09.000Z,272.38
2019-05-15T03:27:52.000Z,272.33
2019-05-15T03:28:26.000Z,272.32
2019-05-15T03:29:54.000Z,272.34
2019-05-15T03:32:02.000Z,272.31
2019-05-15T03:33:55.000Z,272.33
2019-05-15T03:36:05.000Z,272.4
2019-05-15T03:37:37.000Z,272.38
2019-05-15T03:39:48.000Z,272.42
2019-05-15T03:41:24.000Z,272.37
2019-05-15T03:43:36.000Z,272.37
2019-05-15T03:45:04.000Z,272.31
2019-05-15T03:47:11.000Z,272.39
2019-05-15T03:48:41.000Z,272.39
2019-05-15T03:50:48.000Z,272.41
2019-05-15T03:52:20.000Z,272.41
2019-05-15T03:54:33.000Z,272.39
2019-05-15T03:56:00.000Z,272.37
2019-05-15T03:58:11.000Z,272.43
2019-05-15T03:59:47.000Z,272.43
2019-05-15T04:02:00.000Z,272.41
2019-05-15T04:03:31.000Z,272.4
2019-05-15T04:05:39.000Z,272.38
2019-05-15T04:07:14.000Z,272.37
2019-05-15T04:09:25.000Z,272.37
2019-05-15T04:10:55.000Z,272.37
2019-05-15T04:13:03.000Z,272.38
2019-05-15T04:14:32.000Z,272.41
2019-05-15T04:16:49.000Z,272.41
2019-05-15T04:18:16.000Z,272.43
2019-05-15T04:20:32.000Z,272.48
2019-05-15T04:22:04.000Z,272.53
2019-05-15T04:24:12.000Z,272.57
2019-05-15T04:25:42.000Z,272.6
2019-05-15T04:27:55.000Z,272.65
2019-05-15T04:29:26.000Z,272.69
2019-05-15T04:31:40.000Z,272.7
2019-05-15T04:33:27.000Z,272.75
2019-05-15T04:35:38.000Z,272.91
2019-05-15T04:37:10.000Z,272.96
2019-05-15T04:39:18.000Z,273.05
2019-05-15T04:40:50.000Z,273.08
2019-05-15T04:44:18.000Z,273.2
2019-05-15T04:45:41.000Z,273.24
2019-05-15T04:47:42.000Z,273.34
2019-05-15T04:49:04.000Z,273.41
2019-05-15T04:51:05.000Z,273.48
2019-05-15T04:52:27.000Z,273.5
2019-05-15T04:54:31.000Z,273.55
2019-05-15T04:55:53.000Z,273.63
2019-05-15T04:57:54.000Z,273.72
2019-05-15T04:59:16.000Z,273.84
2019-05-15T05:01:21.000Z,273.96
2019-05-15T05:02:43.000Z,274.08
2019-05-15T05:04:44.000Z,274.18
2019-05-15T05:06:07.000Z,274.28
2019-05-15T05:08:11.000Z,274.42
2019-05-15T05:09:33.000Z,274.5
2019-05-15T05:11:35.000Z,274.6
2019-05-15T05:13:01.000Z,274.77
2019-05-15T05:15:02.000Z,275.11
2019-05-15T05:16:24.000Z,275.3
2019-05-15T05:18:24.000Z,275.45
2019-05-15T05:19:46.000Z,275.58
2019-05-15T05:21:49.000Z,275.78
2019-05-15T05:23:11.000Z,275.89
2019-05-15T05:25:12.000Z,276.05
2019-05-15T05:26:34.000Z,276.17
2019-05-15T05:28:36.000Z,276.25
2019-05-15T05:30:00.000Z,276.37
2019-05-15T05:32:02.000Z,276.47
2019-05-15T05:33:24.000Z,276.55
2019-05-15T05:35:25.000Z,276.57
2019-05-15T05:36:53.000Z,276.61
2019-05-15T05:38:55.000Z,276.74
2019-05-15T05:40:18.000Z,276.84
2019-05-15T05:42:20.000Z,276.94
2019-05-15T05:43:43.000Z,276.94
2019-05-15T05:45:44.000Z,277
2019-05-15T05:47:06.000Z,277.14
2019-05-15T05:49:11.000Z,277.27
2019-05-15T05:50:33.000Z,277.28
2019-05-15T05:52:33.000Z,277.34
2019-05-15T05:53:57.000Z,277.33
2019-05-15T05:56:00.000Z,277.36
2019-05-15T05:57:22.000Z,277.41
2019-05-15T05:59:24.000Z,277.49
2019-05-15T06:00:48.000Z,277.59
2019-05-15T06:02:50.000Z,277.66
2019-05-15T06:04:15.000Z,277.71
2019-05-15T06:06:18.000Z,277.74
2019-05-15T06:07:41.000Z,277.87
2019-05-15T06:09:44.000Z,277.95
2019-05-15T06:11:07.000Z,278.13
2019-05-15T06:13:13.000Z,278.17
2019-05-15T06:14:37.000Z,278.31
2019-05-15T06:16:38.000Z,278.31
2019-05-15T06:18:02.000Z,278.27
2019-05-15T06:20:04.000Z,278.33
2019-05-15T06:21:26.000Z,278.49
2019-05-15T06:23:30.000Z,278.57
2019-05-15T06:24:59.000Z,278.73
2019-05-15T06:27:01.000Z,278.88
2019-05-15T06:28:23.000Z,278.88
2019-05-15T06:30:26.000Z,279.06
2019-05-15T06:31:54.000Z,279.11
2019-05-15T06:33:58.000Z,279.21
2019-05-15T06:35:23.000Z,279.29
2019-05-15T06:37:27.000Z,279.41
2019-05-15T06:38:51.000Z,279.43
2019-05-15T06:40:52.000Z,279.52
2019-05-15T06:42:19.000Z,279.58
2019-05-15T06:44:25.000Z,279.6
2019-05-15T06:45:53.000Z,279.64
2019-05-15T06:47:56.000Z,279.76
2019-05-15T06:49:24.000Z,279.87
2019-05-15T06:51:28.000Z,279.96
2019-05-15T06:52:53.000Z,280.01
2019-05-15T06:54:54.000Z,280.19
2019-05-15T06:56:19.000Z,280.24
2019-05-15T06:58:21.000Z,280.35
2019-05-15T06:59:56.000Z,280.4
2019-05-15T07:03:35.000Z,280.48
2019-05-15T07:05:41.000Z,280.51
2019-05-15T07:07:48.000Z,280.52
2019-05-15T07:09:40.000Z,280.57
2019-05-15T07:11:03.000Z,280.59
2019-05-15T07:13:04.000Z,280.68
2019-05-15T07:14:26.000Z,280.73
2019-05-15T07:16:26.000Z,280.75
2019-05-15T07:17:50.000Z,280.87
2019-05-15T07:19:51.000Z,280.89
2019-05-15T07:21:14.000Z,280.95
2019-05-15T07:23:22.000Z,280.97
2019-05-15T07:24:44.000Z,280.99
2019-05-15T07:26:44.000Z,281.11
2019-05-15T07:28:07.000Z,281.14
2019-05-15T07:30:09.000Z,281.22
2019-05-15T07:31:34.000Z,281.29
2019-05-15T07:33:35.000Z,281.23
2019-05-15T07:35:04.000Z,281.31
2019-05-15T07:37:05.000Z,281.53
2019-05-15T07:38:31.000Z,281.68
2019-05-15T07:40:32.000Z,281.56
2019-05-15T07:41:56.000Z,281.63
2019-05-15T07:43:58.000Z,281.59
2019-05-15T07:45:22.000Z,281.7
2019-05-15T07:47:24.000Z,281.96
2019-05-15T07:48:46.000Z,281.96
2019-05-15T07:50:50.000Z,282.05
2019-05-15T07:52:12.000Z,282.1
2019-05-15T07:54:13.000Z,282.03
2019-05-15T07:55:35.000Z,282.11
2019-05-15T07:57:40.000Z,282.26
2019-05-15T07:59:02.000Z,282.27
2019-05-15T08:01:03.000Z,282.36
2019-05-15T08:02:28.000Z,282.37
2019-05-15T08:04:31.000Z,282.44
2019-05-15T08:05:55.000Z,282.49
2019-05-15T08:08:03.000Z,282.64
2019-05-15T08:09:25.000Z,282.74
2019-05-15T08:11:29.000Z,282.83
2019-05-15T08:12:51.000Z,282.87
2019-05-15T08:14:52.000Z,282.85
2019-05-15T08:16:14.000Z,282.85
2019-05-15T08:18:14.000Z,282.85
2019-05-15T08:19:41.000Z,282.93
2019-05-15T08:21:44.000Z,283.09
2019-05-15T08:23:06.000Z,283.15
2019-05-15T08:25:09.000Z,283.11
2019-05-15T08:26:44.000Z,283.18
2019-05-15T08:28:47.000Z,283.21
2019-05-15T08:30:12.000Z,283.18
2019-05-15T08:32:13.000Z,283.24
2019-05-15T08:33:36.000Z,283.31
2019-05-15T08:35:39.000Z,283.34
2019-05-15T08:37:11.000Z,283.45
2019-05-15T08:39:14.000Z,283.57
2019-05-15T08:40:38.000Z,283.61
2019-05-15T08:42:43.000Z,283.84
2019-05-15T08:44:07.000Z,284.02
2019-05-15T08:46:12.000Z,284.02
2019-05-15T08:47:37.000Z,284.1
2019-05-15T08:49:39.000Z,284.19
2019-05-15T08:51:03.000Z,284.07
2019-05-15T08:53:06.000Z,284.12
2019-05-15T08:54:32.000Z,284.12
2019-05-15T08:56:34.000Z,284.17
2019-05-15T08:57:57.000Z,284.17
2019-05-15T09:00:13.000Z,284.21
2019-05-15T09:01:36.000Z,284.4
2019-05-15T09:03:44.000Z,284.56
2019-05-15T09:05:06.000Z,284.67
2019-05-15T09:07:10.000Z,284.68
2019-05-15T09:08:34.000Z,284.71
2019-05-15T09:10:41.000Z,284.66
2019-05-15T09:12:05.000Z,284.61
2019-05-15T09:14:12.000Z,284.71
2019-05-15T09:15:35.000Z,284.63
2019-05-15T09:17:40.000Z,284.8
2019-05-15T09:19:09.000Z,284.81
2019-05-15T09:21:11.000Z,284.85
2019-05-15T09:22:37.000Z,284.81
2019-05-15T09:24:40.000Z,284.96
2019-05-15T09:26:08.000Z,285.07
2019-05-15T09:28:15.000Z,285.19
2019-05-15T09:29:43.000Z,285.25
2019-05-15T09:31:44.000Z,285.25
2019-05-15T09:33:08.000Z,285.29
2019-05-15T09:35:12.000Z,285.37
2019-05-15T09:36:39.000Z,285.03
2019-05-15T09:38:51.000Z,284.91
2019-05-15T09:40:18.000Z,285.11
2019-05-15T09:42:24.000Z,285.21
2019-05-15T09:43:52.000Z,285.39
2019-05-15T09:47:36.000Z,285.49
2019-05-15T09:50:03.000Z,284.88
2019-05-15T09:51:25.000Z,285.13
2019-05-15T09:53:26.000Z,285.41
2019-05-15T09:54:50.000Z,285.58
2019-05-15T09:56:51.000Z,285.52
2019-05-15T09:58:13.000Z,285.47
2019-05-15T10:00:14.000Z,285.6
2019-05-15T10:01:36.000Z,285.65
2019-05-15T10:03:41.000Z,285.71
2019-05-15T10:05:06.000Z,285.84
2019-05-15T10:07:12.000Z,285.96
2019-05-15T10:08:34.000Z,285.89
2019-05-15T10:10:36.000Z,285.92
2019-05-15T10:12:00.000Z,285.67
2019-05-15T10:14:02.000Z,285.72
2019-05-15T10:15:26.000Z,285.93
2019-05-15T10:17:27.000Z,286.15
2019-05-15T10:18:51.000Z,286.11
2019-05-15T10:20:53.000Z,285.99
2019-05-15T10:22:15.000Z,286.12
2019-05-15T10:24:17.000Z,286.15
2019-05-15T10:25:40.000Z,286.12
2019-05-15T10:27:41.000Z,286.3
2019-05-15T10:29:03.000Z,286.4
2019-05-15T10:31:05.000Z,286.21
2019-05-15T10:32:27.000Z,286.28
2019-05-15T10:34:30.000Z,286.51
2019-05-15T10:35:53.000Z,286.6
2019-05-15T10:37:54.000Z,286.55
2019-05-15T10:39:17.000Z,286.38
2019-05-15T10:41:19.000Z,286.31
2019-05-15T10:42:41.000Z,286.44
2019-05-15T10:44:43.000Z,286.48
2019-05-15T10:46:07.000Z,286.59
2019-05-15T10:48:14.000Z,286.8
2019-05-15T10:49:36.000Z,286.86
2019-05-15T10:51:41.000Z,286.86
2019-05-15T10:53:03.000Z,286.82
2019-05-15T10:55:06.000Z,286.79
2019-05-15T10:56:32.000Z,286.91
2019-05-15T10:58:33.000Z,287.01
2019-05-15T10:59:57.000Z,286.94
2019-05-15T11:01:59.000Z,286.97
2019-05-15T11:03:22.000Z,287.02
2019-05-15T11:05:24.000Z,287.13
2019-05-15T11:07:06.000Z,287.4
2019-05-15T11:09:07.000Z,287.37
2019-05-15T11:10:30.000Z,287.31
2019-05-15T11:12:32.000Z,287.17
2019-05-15T11:13:56.000Z,287.29
2019-05-15T11:16:02.000Z,287.6
2019-05-15T11:17:24.000Z,287.49
2019-05-15T11:19:27.000Z,287.34
2019-05-15T11:20:58.000Z,287.24
2019-05-15T11:23:01.000Z,287.32
2019-05-15T11:24:25.000Z,287.41
2019-05-15T11:26:27.000Z,287.3
2019-05-15T11:27:56.000Z,287.21
2019-05-15T11:30:02.000Z,286.99
2019-05-15T11:31:27.000Z,286.84
2019-05-15T11:33:30.000Z,286.92
2019-05-15T11:34:57.000Z,286.96
2019-05-15T11:37:02.000Z,286.89
2019-05-15T11:38:26.000Z,287.08
2019-05-15T11:40:33.000Z,287.08
2019-05-15T11:41:56.000Z,287.15
2019-05-15T11:43:59.000Z,287.02
2019-05-15T11:45:23.000Z,286.99
2019-05-15T11:47:24.000Z,287.12
2019-05-15T11:48:47.000Z,287.28
2019-05-15T11:50:52.000Z,287.4
2019-05-15T11:52:15.000Z,287.29
2019-05-15T11:54:20.000Z,286.89
2019-05-15T11:55:46.000Z,286.93
2019-05-15T11:57:49.000Z,287.26
2019-05-15T11:59:18.000Z,287.66
2019-05-15T12:01:20.000Z,287.75
2019-05-15T12:02:46.000Z,287.79
2019-05-15T12:04:47.000Z,287.76
2019-05-15T12:06:10.000Z,287.5
2019-05-15T12:08:23.000Z,287.57
2019-05-15T12:09:48.000Z,287.46
2019-05-15T12:11:52.000Z,287.33
2019-05-15T12:13:15.000Z,287.07
2019-05-15T12:15:19.000Z,287.15
2019-05-15T12:16:49.000Z,287.72
2019-05-15T12:19:11.000Z,287.9
2019-05-15T12:20:46.000Z,288.1
2019-05-15T12:22:54.000Z,288.01
2019-05-15T12:24:22.000Z,288.01
2019-05-15T12:26:26.000Z,288
2019-05-15T12:27:55.000Z,288.05
2019-05-15T12:30:03.000Z,288.09
2019-05-15T12:31:31.000Z,288.08
2019-05-15T12:33:34.000Z,288.14
2019-05-15T12:34:57.000Z,288.17
2019-05-15T12:37:14.000Z,288.17
2019-05-15T12:38:40.000Z,288.22
2019-05-15T13:00:54.000Z,289.31
2019-05-15T13:03:02.000Z,289.22
2019-05-15T13:04:32.000Z,289.09
2019-05-15T13:06:38.000Z,288.99
2019-05-15T13:08:24.000Z,289.05
2019-05-15T13:10:31.000Z,289.21
2019-05-15T13:12:02.000Z,289.4
2019-05-15T13:14:09.000Z,289.34
2019-05-15T13:15:33.000Z,289.44
2019-05-15T13:17:39.000Z,289.35
2019-05-15T13:19:03.000Z,289.12
2019-05-15T13:21:12.000Z,289.14
2019-05-15T13:22:36.000Z,289.55
2019-05-15T13:24:42.000Z,289.63
2019-05-15T13:26:06.000Z,289.63
2019-05-15T13:28:32.000Z,289.55
2019-05-15T13:29:57.000Z,289.61
2019-05-15T13:32:07.000Z,289.52
2019-05-15T13:33:33.000Z,289.53
2019-05-15T13:35:46.000Z,289.35
2019-05-15T13:37:15.000Z,289.34
2019-05-15T13:39:36.000Z,289.44
2019-05-15T13:41:05.000Z,289.48
2019-05-15T13:43:16.000Z,289.5
2019-05-15T13:44:49.000Z,289.6
2019-05-15T13:46:59.000Z,289.5
2019-05-15T13:48:27.000Z,289.44
2019-05-15T13:50:37.000Z,289.37
2019-05-15T13:52:11.000Z,289.58
2019-05-15T13:54:22.000Z,289.59
2019-05-15T13:55:52.000Z,289.79
2019-05-15T13:57:59.000Z,289.65
2019-05-15T13:59:28.000Z,289.8
2019-05-15T14:01:36.000Z,290.04
2019-05-15T14:03:13.000Z,289.91
2019-05-15T14:05:23.000Z,289.85
2019-05-15T14:06:54.000Z,289.87
2019-05-15T14:09:06.000Z,289.47
2019-05-15T14:10:41.000Z,289.29
2019-05-15T14:12:58.000Z,289.24
2019-05-15T14:14:25.000Z,289.02
2019-05-15T14:16:40.000Z,288.95
2019-05-15T14:18:05.000Z,288.85
2019-05-15T14:20:17.000Z,288.71
2019-05-15T14:21:46.000Z,288.74
2019-05-15T14:24:01.000Z,288.92
2019-05-15T14:25:31.000Z,288.93
2019-05-15T14:27:45.000Z,288.54
2019-05-15T14:29:22.000Z,288.52
2019-05-15T14:31:34.000Z,288.45
2019-05-15T14:33:05.000Z,288.16
2019-05-15T14:35:20.000Z,288.12
2019-05-15T14:36:51.000Z,288.31
2019-05-15T14:39:07.000Z,288.74
2019-05-15T14:40:37.000Z,288.85
2019-05-15T14:42:52.000Z,289.06
2019-05-15T14:44:21.000Z,289.11
2019-05-15T14:49:17.000Z,289.37
2019-05-15T14:51:17.000Z,289.71
2019-05-15T14:52:41.000Z,289.64
2019-05-15T14:54:42.000Z,289.53
2019-05-15T14:56:04.000Z,289.44
2019-05-15T14:58:09.000Z,289.29
2019-05-15T14:59:31.000Z,289.59
2019-05-15T15:01:33.000Z,289.86
2019-05-15T15:02:55.000Z,289.74
2019-05-15T15:05:00.000Z,289.52
2019-05-15T15:06:22.000Z,289.23
2019-05-15T15:08:22.000Z,289.14
2019-05-15T15:09:47.000Z,289.05
2019-05-15T15:11:49.000Z,288.75
2019-05-15T15:13:11.000Z,288.79
2019-05-15T15:15:12.000Z,288.87
2019-05-15T15:16:36.000Z,288.86
2019-05-15T15:18:39.000Z,288.55
2019-05-15T15:20:01.000Z,288.53
2019-05-15T15:22:04.000Z,288.55
2019-05-15T15:23:26.000Z,288.7
2019-05-15T15:25:32.000Z,288.79
2019-05-15T15:26:54.000Z,288.69
2019-05-15T15:28:55.000Z,288.38
2019-05-15T15:30:18.000Z,288.19
2019-05-15T15:32:19.000Z,288.13
2019-05-15T15:33:41.000Z,288.03
2019-05-15T15:35:42.000Z,287.85
2019-05-15T15:37:04.000Z,287.66
2019-05-15T15:39:06.000Z,287.7
2019-05-15T15:40:30.000Z,287.57
2019-05-15T15:42:32.000Z,287.69
2019-05-15T15:43:55.000Z,287.73
2019-05-15T15:45:56.000Z,287.76
2019-05-15T15:47:20.000Z,287.77
2019-05-15T15:49:21.000Z,287.65
2019-05-15T15:50:43.000Z,287.68
2019-05-15T15:52:45.000Z,287.65
2019-05-15T15:54:07.000Z,287.45
2019-05-15T15:56:09.000Z,287.39
2019-05-15T15:57:32.000Z,287.28
2019-05-15T15:59:33.000Z,287.25
2019-05-15T16:00:56.000Z,287.3
2019-05-15T16:02:57.000Z,287.25
2019-05-15T16:04:20.000Z,287.22
2019-05-15T16:06:22.000Z,287.05
2019-05-15T16:07:44.000Z,287.01
2019-05-15T16:09:45.000Z,286.9
2019-05-15T16:11:10.000Z,286.96
2019-05-15T16:13:12.000Z,286.98
2019-05-15T16:14:35.000Z,286.91
2019-05-15T16:16:39.000Z,286.82
2019-05-15T16:18:01.000Z,286.72
2019-05-15T16:20:04.000Z,286.63
2019-05-15T16:21:27.000Z,286.53
2019-05-15T16:23:29.000Z,286.56
2019-05-15T16:24:52.000Z,286.5
2019-05-15T16:26:54.000Z,286.4
2019-05-15T16:28:16.000Z,286.44
2019-05-15T16:30:19.000Z,286.53
2019-05-15T16:31:44.000Z,286.49
2019-05-15T16:33:48.000Z,286.39
2019-05-15T16:35:12.000Z,286.35
2019-05-15T16:38:51.000Z,286.39
2019-05-15T16:39:40.000Z,286.4
2019-05-15T16:41:03.000Z,286.36
2019-05-15T16:43:04.000Z,286.3
2019-05-15T16:44:28.000Z,286.24
2019-05-15T16:46:32.000Z,286.09
2019-05-15T16:47:56.000Z,286.04
2019-05-15T16:50:04.000Z,286.01
2019-05-15T16:51:28.000Z,285.91
2019-05-15T16:53:37.000Z,285.91
2019-05-15T16:55:01.000Z,285.91
2019-05-15T16:57:08.000Z,285.9
2019-05-15T16:58:32.000Z,285.78
2019-05-15T17:00:33.000Z,285.8
2019-05-15T17:01:58.000Z,285.75
2019-05-15T17:04:00.000Z,285.65
2019-05-15T17:05:22.000Z,285.64
2019-05-15T17:07:25.000Z,285.55
2019-05-15T17:08:51.000Z,285.53
2019-05-15T17:10:55.000Z,285.46
2019-05-15T17:12:22.000Z,285.29
2019-05-15T17:14:24.000Z,285.21
2019-05-15T17:15:47.000Z,285.26
2019-05-15T17:17:52.000Z,285.22
2019-05-15T17:19:24.000Z,285.25
2019-05-15T17:21:29.000Z,285.18
2019-05-15T17:23:01.000Z,285.09
2019-05-15T17:25:10.000Z,285.05
2019-05-15T17:26:37.000Z,285.02
2019-05-15T17:28:43.000Z,284.98
2019-05-15T17:30:11.000Z,285.01
2019-05-15T17:32:15.000Z,285
2019-05-15T17:33:50.000Z,284.95
2019-05-15T17:35:54.000Z,284.93
2019-05-15T17:37:19.000Z,284.84
2019-05-15T17:39:28.000Z,284.84
2019-05-15T17:41:08.000Z,284.83
2019-05-15T17:43:13.000Z,284.71
2019-05-15T17:44:40.000Z,284.75
2019-05-15T17:46:49.000Z,284.74
2019-05-15T17:48:15.000Z,284.6
2019-05-15T17:50:21.000Z,284.55
2019-05-15T17:51:46.000Z,284.59
2019-05-15T17:53:54.000Z,284.53
2019-05-15T17:55:23.000Z,284.52
2019-05-15T17:57:26.000Z,284.51
2019-05-15T17:58:55.000Z,284.42
2019-05-15T18:01:04.000Z,284.46
2019-05-15T18:02:35.000Z,284.45
2019-05-15T18:04:44.000Z,284.43
2019-05-15T18:06:10.000Z,284.41
2019-05-15T18:08:14.000Z,284.36
2019-05-15T18:09:39.000Z,284.24
2019-05-15T18:12:03.000Z,284.22
2019-05-15T18:13:27.000Z,284.21
2019-05-15T18:15:38.000Z,284.19
2019-05-15T18:17:12.000Z,284.18
2019-05-15T18:19:15.000Z,284.15
2019-05-15T18:20:42.000Z,284.17
2019-05-15T18:22:51.000Z,284.13
2019-05-15T18:24:19.000Z,284.07
2019-05-15T18:26:30.000Z,284.02
2019-05-15T18:28:03.000Z,283.96
2019-05-15T18:30:05.000Z,283.92
2019-05-15T18:31:34.000Z,283.88
2019-05-15T18:33:40.000Z,283.82
2019-05-15T18:35:21.000Z,283.69
2019-05-15T18:37:31.000Z,283.61
2019-05-15T18:39:03.000Z,283.52
2019-05-15T18:41:22.000Z,283.45
2019-05-15T18:42:55.000Z,283.47
2019-05-15T18:44:59.000Z,283.49
2019-05-15T18:46:33.000Z,283.49
2019-05-15T18:48:41.000Z,283.49
2019-05-15T18:50:14.000Z,283.44
2019-05-15T18:52:25.000Z,283.45
2019-05-15T18:53:55.000Z,283.39
2019-05-15T18:56:05.000Z,283.39
2019-05-15T18:57:37.000Z,283.35
2019-05-15T18:59:49.000Z,283.32
2019-05-15T19:01:18.000Z,283.25
2019-05-15T19:03:26.000Z,283.1
2019-05-15T19:04:56.000Z,283.02
2019-05-15T19:07:13.000Z,282.95
2019-05-15T19:08:43.000Z,282.93
2019-05-15T19:10:52.000Z,282.95
2019-05-15T19:12:23.000Z,282.89
2019-05-15T19:14:30.000Z,282.81
2019-05-15T19:16:04.000Z,282.73
2019-05-15T19:18:16.000Z,282.68
2019-05-15T19:19:50.000Z,282.64
2019-05-15T19:22:01.000Z,282.57
2019-05-15T19:23:32.000Z,282.52
2019-05-15T19:25:43.000Z,282.56
2019-05-15T19:27:20.000Z,282.59
2019-05-15T19:29:31.000Z,282.54
2019-05-15T19:31:04.000Z,282.49
2019-05-15T19:33:15.000Z,282.4
2019-05-15T19:34:48.000Z,282.31
2019-05-15T19:37:02.000Z,282.29
2019-05-15T19:38:32.000Z,282.25
2019-05-15T19:41:55.000Z,282.15
2019-05-15T19:43:17.000Z,282.16
2019-05-15T19:45:19.000Z,282.17
2019-05-15T19:46:41.000Z,282.12
2019-05-15T19:48:43.000Z,282.09
2019-05-15T19:50:06.000Z,282.12
2019-05-15T19:52:09.000Z,282.11
2019-05-15T19:53:31.000Z,282.03
2019-05-15T19:55:32.000Z,282
2019-05-15T19:56:54.000Z,281.94
2019-05-15T19:58:56.000Z,281.97
2019-05-15T20:00:20.000Z,281.98
2019-05-15T20:02:21.000Z,281.97
2019-05-15T20:03:43.000Z,281.95
2019-05-15T20:05:53.000Z,281.91
2019-05-15T20:07:15.000Z,281.82
2019-05-15T20:09:18.000Z,281.87
2019-05-15T20:10:41.000Z,281.91
2019-05-15T20:12:42.000Z,281.9
2019-05-15T20:14:04.000Z,281.95
2019-05-15T20:16:05.000Z,281.98
2019-05-15T20:17:27.000Z,281.96
2019-05-15T20:19:28.000Z,281.92
2019-05-15T20:20:52.000Z,281.91
2019-05-15T20:22:54.000Z,281.93
2019-05-15T20:24:18.000Z,281.83
2019-05-15T20:26:19.000Z,281.78
2019-05-15T20:27:42.000Z,281.73
2019-05-15T20:29:44.000Z,281.75
2019-05-15T20:31:06.000Z,281.79
2019-05-15T20:33:08.000Z,281.84
2019-05-15T20:34:30.000Z,281.92
2019-05-15T20:36:31.000Z,281.97
2019-05-15T20:37:54.000Z,282.02
2019-05-15T20:39:55.000Z,282.04
2019-05-15T20:41:18.000Z,282.1
2019-05-15T20:43:22.000Z,282.14
2019-05-15T20:44:45.000Z,282.16
2019-05-15T20:46:52.000Z,282.16
2019-05-15T20:48:14.000Z,282.19
2019-05-15T20:50:18.000Z,282.17
2019-05-15T20:51:41.000Z,281.97
2019-05-15T20:53:44.000Z,281.82
2019-05-15T20:55:07.000Z,281.71
2019-05-15T20:57:09.000Z,281.65
2019-05-15T20:58:32.000Z,281.56
2019-05-15T21:00:33.000Z,281.58
2019-05-15T21:01:56.000Z,281.6
2019-05-15T21:04:01.000Z,281.64
2019-05-15T21:05:23.000Z,281.56
2019-05-15T21:07:27.000Z,281.55
2019-05-15T21:09:01.000Z,281.6
2019-05-15T21:11:07.000Z,281.6
2019-05-15T21:12:34.000Z,281.49
2019-05-15T21:14:38.000Z,281.46
2019-05-15T21:16:02.000Z,281.51
2019-05-15T21:18:05.000Z,281.47
2019-05-15T21:19:42.000Z,281.4
2019-05-15T21:21:44.000Z,281.34
2019-05-15T21:23:09.000Z,281.32
2019-05-15T21:25:11.000Z,281.27
2019-05-15T21:26:33.000Z,281.22
2019-05-15T21:28:37.000Z,281.23
2019-05-15T21:30:01.000Z,281.24
2019-05-15T21:32:05.000Z,281.29
2019-05-15T21:33:27.000Z,281.3
2019-05-15T21:35:29.000Z,281.27
2019-05-15T21:36:52.000Z,281.28
2019-05-15T21:38:56.000Z,281.31
2019-05-15T21:40:21.000Z,281.35
2019-05-15T21:42:24.000Z,281.34
2019-05-15T21:43:46.000Z,281.26
2019-05-15T21:45:55.000Z,281.23
2019-05-15T21:47:21.000Z,281.24
2019-05-15T21:49:25.000Z,281.2
2019-05-15T21:50:52.000Z,281.15
2019-05-15T21:52:57.000Z,281.12
2019-05-15T21:54:22.000Z,281.08
2019-05-15T21:56:24.000Z,281.06
2019-05-15T21:57:48.000Z,281.04
2019-05-15T21:59:50.000Z,281.02
2019-05-15T22:01:16.000Z,280.97
2019-05-15T22:03:24.000Z,280.91
2019-05-15T22:04:50.000Z,280.91
2019-05-15T22:06:58.000Z,280.87
2019-05-15T22:08:29.000Z,280.86
2019-05-15T22:10:37.000Z,280.86
2019-05-15T22:12:03.000Z,280.9
2019-05-15T22:15:40.000Z,280.92
2019-05-15T22:16:14.000Z,280.92
2019-05-15T22:17:38.000Z,280.94
2019-05-15T22:19:42.000Z,280.86
2019-05-15T22:21:07.000Z,280.84
2019-05-15T22:23:11.000Z,280.82
2019-05-15T22:24:37.000Z,280.84
2019-05-15T22:26:44.000Z,280.81
2019-05-15T22:28:12.000Z,280.86
2019-05-15T22:30:20.000Z,280.87
2019-05-15T22:31:44.000Z,280.86
2019-05-15T22:33:46.000Z,280.88